Time;durP1;ratioP1;P1;durP2;ratioP2;P2;SDS_P1;SDS_P2;PMS_P1;PMS_P2;Temp;Humidity;BMP_temperature;BMP_pressure;BME280_temperature;BME280_humidity;BME280_pressure;Samples;Min_cycle;Max_cycle;Signal;HPM_P1;HPM_P2
2023/03/25 00:01:00;;;;;;;10.60;4.70;;;9.60;99.90;;;;;;4973228;28;20097;-75
2023/03/25 00:03:29;;;;;;;20.33;5.32;;;9.60;99.90;;;;;;4988471;28;20061;-74
2023/03/25 00:05:56;;;;;;;11.63;3.88;;;9.60;99.90;;;;;;4964662;28;20125;-74
2023/03/25 00:08:24;;;;;;;14.38;4.90;;;9.60;99.90;;;;;;4986630;28;20047;-74
2023/03/25 00:10:58;;;;;;;9.43;4.40;;;9.60;99.90;;;;;;4965021;28;20042;-75
2023/03/25 00:13:24;;;;;;;10.90;3.88;;;9.60;99.90;;;;;;4987745;28;20445;-75
2023/03/25 00:15:57;;;;;;;15.85;5.07;;;9.60;99.90;;;;;;4971345;28;20107;-75
2023/03/25 00:18:24;;;;;;;9.02;4.20;;;9.60;99.90;;;;;;4971879;28;20077;-75
2023/03/25 00:20:51;;;;;;;19.73;4.55;;;9.60;99.90;;;;;;4974320;28;20046;-74
2023/03/25 00:23:21;;;;;;;15.13;5.32;;;9.60;99.90;;;;;;4993092;28;20136;-74
2023/03/25 00:25:48;;;;;;;14.02;4.38;;;9.60;99.90;;;;;;4992363;28;20050;-74
2023/03/25 00:28:15;;;;;;;8.55;3.78;;;9.60;99.90;;;;;;4957674;28;20101;-75
2023/03/25 00:30:42;;;;;;;12.15;4.05;;;9.60;99.90;;;;;;4989117;28;20097;-74
2023/03/25 00:33:09;;;;;;;14.20;3.45;;;9.50;99.90;;;;;;4993755;28;20046;-74
2023/03/25 00:35:38;;;;;;;11.97;4.40;;;9.60;99.90;;;;;;4991784;28;20157;-74
2023/03/25 00:38:06;;;;;;;15.63;3.92;;;9.60;99.90;;;;;;4975181;28;20054;-75
2023/03/25 00:40:35;;;;;;;14.00;3.40;;;9.60;99.90;;;;;;4992243;28;20078;-75
2023/03/25 00:43:02;;;;;;;10.38;3.25;;;9.60;99.90;;;;;;4991439;28;20093;-74
2023/03/25 00:45:28;;;;;;;13.25;4.07;;;9.70;99.90;;;;;;4990633;28;20112;-75
2023/03/25 00:47:54;;;;;;;14.57;5.10;;;9.60;99.90;;;;;;4990905;28;20503;-74
2023/03/25 00:50:20;;;;;;;8.07;3.65;;;9.60;99.90;;;;;;4973956;28;20050;-74
2023/03/25 00:52:47;;;;;;;11.45;3.75;;;9.70;99.90;;;;;;4991583;28;20058;-75
2023/03/25 00:55:13;;;;;;;11.48;3.55;;;9.70;99.90;;;;;;4971354;28;20074;-75
2023/03/25 00:57:39;;;;;;;15.25;4.60;;;9.60;99.90;;;;;;4990724;28;20046;-75
2023/03/25 01:00:08;;;;;;;10.63;4.28;;;9.60;99.90;;;;;;4990935;28;20050;-75
2023/03/25 01:02:34;;;;;;;8.95;4.57;;;9.60;99.90;;;;;;4991146;28;20392;-75
2023/03/25 01:05:00;;;;;;;11.05;4.65;;;9.60;99.90;;;;;;4988136;28;20108;-75
2023/03/25 01:07:28;;;;;;;9.82;5.18;;;9.50;99.90;;;;;;4973993;28;20455;-75
2023/03/25 01:09:55;;;;;;;12.98;5.43;;;9.50;99.90;;;;;;4973780;28;20582;-75
2023/03/25 01:12:21;;;;;;;14.73;5.97;;;9.40;99.90;;;;;;4991511;28;20056;-75
2023/03/25 01:14:47;;;;;;;8.73;6.45;;;9.40;99.90;;;;;;4991866;28;20407;-75
2023/03/25 01:17:13;;;;;;;10.90;5.63;;;9.30;99.90;;;;;;4990458;28;20038;-75
2023/03/25 01:19:39;;;;;;;12.50;6.55;;;9.30;99.90;;;;;;4990041;28;20692;-76
2023/03/25 01:22:05;;;;;;;17.52;6.70;;;9.20;99.90;;;;;;4975821;28;20129;-75
2023/03/25 01:24:31;;;;;;;29.20;7.32;;;9.20;99.90;;;;;;4992992;28;20089;-76
2023/03/25 01:26:56;;;;;;;17.83;7.18;;;9.20;99.90;;;;;;4973394;28;20054;-75
2023/03/25 01:29:22;;;;;;;12.35;6.88;;;9.10;99.90;;;;;;4989602;28;20600;-76
2023/03/25 01:31:49;;;;;;;13.77;7.55;;;9.10;99.90;;;;;;4971466;28;20053;-75
2023/03/25 01:34:15;;;;;;;13.15;8.65;;;9.10;99.90;;;;;;4974105;28;20065;-76
2023/03/25 01:36:45;;;;;;;18.67;7.95;;;9.10;99.90;;;;;;4973847;28;20797;-75
2023/03/25 01:39:15;;;;;;;19.25;8.20;;;9.00;99.90;;;;;;4971775;28;20522;-75
2023/03/25 01:41:43;;;;;;;21.15;8.30;;;9.00;99.90;;;;;;4990496;28;20096;-75
2023/03/25 01:44:29;;;;;;;15.57;8.20;;;9.00;99.90;;;;;;4990970;28;20046;-75
2023/03/25 01:46:57;;;;;;;18.98;8.05;;;9.00;99.90;;;;;;4955420;28;20061;-75
2023/03/25 01:49:43;;;;;;;11.73;8.15;;;9.00;99.90;;;;;;4984420;28;20526;-75
2023/03/25 01:52:11;;;;;;;15.07;9.38;;;9.00;99.90;;;;;;4990301;28;20072;-75
2023/03/25 01:54:38;;;;;;;25.05;6.78;;;9.00;99.90;;;;;;4990731;28;20046;-76
2023/03/25 01:57:05;;;;;;;16.35;7.00;;;8.90;99.90;;;;;;4972451;28;20050;-75
2023/03/25 01:59:31;;;;;;;13.57;6.65;;;8.90;99.90;;;;;;4988600;28;20488;-75
2023/03/25 02:02:01;;;;;;;18.35;6.90;;;8.90;99.90;;;;;;4970167;28;20408;-76
2023/03/25 02:04:50;;;;;;;17.85;7.20;;;8.90;99.90;;;;;;4987329;28;20062;-76
2023/03/25 02:07:17;;;;;;;20.88;7.90;;;8.90;99.90;;;;;;4986559;28;20117;-76
2023/03/25 02:09:43;;;;;;;19.55;6.60;;;8.80;99.90;;;;;;4989380;28;20128;-76
2023/03/25 02:12:09;;;;;;;19.98;6.57;;;8.80;99.90;;;;;;4988959;28;20093;-76
2023/03/25 02:14:37;;;;;;;23.90;6.78;;;8.80;99.90;;;;;;4972614;28;20047;-76
2023/03/25 02:17:20;;;;;;;25.15;7.22;;;8.80;99.90;;;;;;4972959;28;20046;-75
2023/03/25 02:20:15;;;;;;;22.27;6.72;;;8.80;99.90;;;;;;4968731;28;20057;-75
2023/03/25 02:23:00;;;;;;;12.20;5.65;;;8.80;99.90;;;;;;4976658;28;20074;-76
2023/03/25 02:26:04;;;;;;;19.23;6.20;;;8.80;99.90;;;;;;4989579;28;20065;-75
2023/03/25 02:28:41;;;;;;;18.23;5.10;;;8.70;99.90;;;;;;4989016;28;20073;-75
2023/03/25 02:31:32;;;;;;;12.43;5.28;;;8.70;99.90;;;;;;4989637;28;20503;-75
2023/03/25 02:34:40;;;;;;;26.50;6.32;;;8.70;99.90;;;;;;4989147;28;20042;-75
2023/03/25 02:37:36;;;;;;;19.50;7.30;;;8.60;99.90;;;;;;4979710;28;20038;-75
2023/03/25 02:40:13;;;;;;;18.25;7.03;;;8.60;99.90;;;;;;4988745;28;20046;-75
2023/03/25 02:42:50;;;;;;;20.80;7.90;;;8.60;99.90;;;;;;4989956;28;20503;-75
2023/03/25 02:45:19;;;;;;;24.52;5.78;;;8.60;99.90;;;;;;4988409;28;20137;-75
2023/03/25 02:47:53;;;;;;;14.90;6.13;;;8.60;99.90;;;;;;4971057;28;20081;-75
2023/03/25 02:50:29;;;;;;;15.15;7.22;;;8.60;99.90;;;;;;4990154;28;20069;-75
2023/03/25 02:52:59;;;;;;;22.67;6.57;;;8.50;99.90;;;;;;4992811;28;20088;-75
2023/03/25 02:55:29;;;;;;;14.50;5.38;;;8.60;99.90;;;;;;4971972;28;20100;-75
2023/03/25 02:57:56;;;;;;;20.88;6.53;;;8.50;99.90;;;;;;4988360;28;20046;-75
2023/03/25 03:00:27;;;;;;;15.63;6.18;;;8.50;99.90;;;;;;4989168;28;20589;-75
2023/03/25 03:02:58;;;;;;;17.65;5.90;;;8.50;99.90;;;;;;4972693;28;20050;-75
2023/03/25 03:05:32;;;;;;;22.40;6.28;;;8.50;99.90;;;;;;4971281;28;20054;-75
2023/03/25 03:08:23;;;;;;;24.77;5.78;;;8.50;99.90;;;;;;4971505;28;20046;-75
2023/03/25 03:11:01;;;;;;;14.05;5.68;;;8.50;99.90;;;;;;4988009;28;20133;-75
2023/03/25 03:13:50;;;;;;;16.77;6.68;;;8.50;99.90;;;;;;4979342;28;20062;-74
2023/03/25 03:16:24;;;;;;;21.77;6.40;;;8.40;99.90;;;;;;4968046;28;20045;-75
2023/03/25 03:19:12;;;;;;;15.48;5.65;;;8.40;99.90;;;;;;4970472;28;20046;-74
2023/03/25 03:22:00;;;;;;;14.27;5.97;;;8.40;99.90;;;;;;4987856;28;20531;-74
2023/03/25 03:24:33;;;;;;;19.08;6.57;;;8.40;99.90;;;;;;4984517;28;20506;-75
2023/03/25 03:27:14;;;;;;;20.60;7.22;;;8.30;99.90;;;;;;4971311;28;20050;-75
2023/03/25 03:29:48;;;;;;;39.03;8.20;;;8.30;99.90;;;;;;4987859;28;20042;-74
2023/03/25 03:32:21;;;;;;;22.02;7.20;;;8.30;99.90;;;;;;4971699;28;20140;-74
2023/03/25 03:34:51;;;;;;;23.38;7.13;;;8.30;99.90;;;;;;4981216;28;20046;-74
2023/03/25 03:37:27;;;;;;;16.42;6.13;;;8.30;99.90;;;;;;4971596;28;20054;-74
2023/03/25 03:39:54;;;;;;;20.50;7.63;;;8.30;99.90;;;;;;4987603;28;20057;-75
2023/03/25 03:42:29;;;;;;;22.88;6.72;;;8.40;99.90;;;;;;4989057;28;20125;-74
2023/03/25 03:45:03;;;;;;;24.02;6.85;;;8.30;99.90;;;;;;4988648;28;20407;-74
2023/03/25 03:47:34;;;;;;;32.58;7.00;;;8.30;99.90;;;;;;4988730;28;20129;-74
2023/03/25 03:50:12;;;;;;;27.00;7.35;;;8.30;99.90;;;;;;4988890;28;20046;-75
2023/03/25 03:52:51;;;;;;;32.67;6.72;;;8.30;99.90;;;;;;4978029;28;20054;-75
2023/03/25 03:55:22;;;;;;;23.45;6.20;;;8.30;99.90;;;;;;4988177;28;20042;-75
2023/03/25 03:58:01;;;;;;;15.93;6.68;;;8.30;99.90;;;;;;4970229;28;20861;-75
2023/03/25 04:00:35;;;;;;;21.25;6.55;;;8.30;99.90;;;;;;4984482;28;20050;-75
2023/03/25 04:03:27;;;;;;;25.35;6.72;;;8.30;99.90;;;;;;4988609;28;20047;-75
2023/03/25 04:05:59;;;;;;;17.17;6.53;;;8.30;99.90;;;;;;4967280;28;20541;-75
2023/03/25 04:08:37;;;;;;;25.52;6.82;;;8.30;99.90;;;;;;4970823;28;20038;-75
2023/03/25 04:11:11;;;;;;;13.35;5.63;;;8.30;99.90;;;;;;4970094;28;20539;-74
2023/03/25 04:13:41;;;;;;;20.10;5.10;;;8.20;99.90;;;;;;4981928;28;20156;-74
2023/03/25 04:16:07;;;;;;;17.02;6.13;;;8.20;99.90;;;;;;4972885;28;20100;-74
2023/03/25 04:18:33;;;;;;;11.45;5.93;;;8.20;99.90;;;;;;4988475;28;20048;-75
2023/03/25 04:21:00;;;;;;;15.45;6.10;;;8.30;99.90;;;;;;4986171;28;20451;-75
2023/03/25 04:23:29;;;;;;;20.17;6.30;;;8.20;99.90;;;;;;4972906;28;20141;-74
2023/03/25 04:25:56;;;;;;;27.77;6.28;;;8.30;99.90;;;;;;4970571;28;20050;-74
2023/03/25 04:28:22;;;;;;;22.35;7.53;;;8.30;99.90;;;;;;4980965;28;20056;-75
2023/03/25 04:30:54;;;;;;;20.92;7.28;;;8.30;99.90;;;;;;4970865;28;20049;-75
2023/03/25 04:33:24;;;;;;;17.20;7.30;;;8.20;99.90;;;;;;4988484;28;20430;-75
2023/03/25 04:35:50;;;;;;;18.13;6.80;;;8.30;99.90;;;;;;4966344;28;20030;-75
2023/03/25 04:38:19;;;;;;;20.90;6.47;;;8.30;99.90;;;;;;4953639;28;20132;-74
2023/03/25 04:40:46;;;;;;;18.08;7.63;;;8.30;99.90;;;;;;4987170;28;20038;-74
2023/03/25 04:43:15;;;;;;;28.73;6.25;;;8.30;99.90;;;;;;4954674;28;20057;-74
2023/03/25 04:45:47;;;;;;;20.33;8.10;;;8.30;99.90;;;;;;4969572;28;20069;-75
2023/03/25 04:48:28;;;;;;;17.85;6.13;;;8.30;99.90;;;;;;4991612;28;20073;-74
2023/03/25 04:50:56;;;;;;;22.60;8.45;;;8.30;99.90;;;;;;4987864;28;20132;-75
2023/03/25 04:53:22;;;;;;;19.40;6.70;;;8.20;99.90;;;;;;4970237;28;20133;-74
2023/03/25 04:55:49;;;;;;;26.30;6.90;;;8.20;99.90;;;;;;4973823;28;20137;-74
2023/03/25 04:58:15;;;;;;;13.77;5.53;;;8.30;99.90;;;;;;4986349;28;20050;-74
2023/03/25 05:00:42;;;;;;;28.30;7.80;;;8.20;99.90;;;;;;4970489;28;20038;-74
2023/03/25 05:03:08;;;;;;;29.77;7.45;;;8.30;99.90;;;;;;4968328;28;20086;-74
2023/03/25 05:05:34;;;;;;;18.88;7.22;;;8.20;99.90;;;;;;4989519;28;20034;-74
2023/03/25 05:08:00;;;;;;;20.60;6.97;;;8.20;99.90;;;;;;4960136;28;20190;-74
2023/03/25 05:10:29;;;;;;;24.80;6.80;;;8.20;99.90;;;;;;4973579;28;20081;-75
2023/03/25 05:13:05;;;;;;;22.90;7.20;;;8.20;99.90;;;;;;4974027;28;20573;-75
2023/03/25 05:15:34;;;;;;;21.95;6.40;;;8.30;99.90;;;;;;4977604;28;20538;-75
2023/03/25 05:18:01;;;;;;;21.20;6.53;;;8.10;99.90;;;;;;4974362;28;20042;-75
2023/03/25 05:20:27;;;;;;;24.20;6.97;;;8.20;99.90;;;;;;4992054;28;20058;-75
2023/03/25 05:22:56;;;;;;;28.42;8.73;;;8.20;99.90;;;;;;4974053;28;20112;-75
2023/03/25 05:25:21;;;;;;;25.25;6.78;;;8.20;99.90;;;;;;4973164;28;20049;-75
2023/03/25 05:27:48;;;;;;;19.98;7.13;;;8.20;99.90;;;;;;4989577;28;20045;-75
2023/03/25 05:30:15;;;;;;;18.60;7.68;;;8.20;99.90;;;;;;4994103;28;20050;-75
2023/03/25 05:32:44;;;;;;;20.40;7.05;;;8.20;99.90;;;;;;4990198;28;20630;-75
2023/03/25 05:35:10;;;;;;;;;;;8.20;99.90;;;;;;4974099;28;20050;-74
2023/03/25 05:37:36;;;;;;;15.90;5.68;;;8.20;99.90;;;;;;4971237;28;19989;-74
2023/03/25 05:40:03;;;;;;;26.67;5.50;;;8.10;99.90;;;;;;4972939;28;20046;-75
2023/03/25 05:42:28;;;;;;;19.33;6.40;;;8.10;99.90;;;;;;4989911;28;20054;-75
2023/03/25 05:44:54;;;;;;;16.65;6.75;;;8.10;99.90;;;;;;4989867;28;20038;-75
2023/03/25 05:47:22;;;;;;;22.08;6.50;;;8.10;99.90;;;;;;4973188;28;20166;-75
2023/03/25 05:49:49;;;;;;;22.65;7.95;;;8.10;99.90;;;;;;4973474;28;20054;-75
2023/03/25 05:52:16;;;;;;;21.60;8.52;;;8.10;99.90;;;;;;4973991;28;20039;-74
2023/03/25 05:54:44;;;;;;;20.73;8.32;;;8.10;99.90;;;;;;4972907;28;20046;-74
2023/03/25 05:57:10;;;;;;;41.38;10.07;;;8.10;99.90;;;;;;4990191;28;20042;-75
2023/03/25 05:59:37;;;;;;;19.25;8.02;;;8.10;99.90;;;;;;4990507;28;20035;-75
2023/03/25 06:02:11;;;;;;;32.33;8.60;;;8.20;99.90;;;;;;4988142;28;20050;-75
2023/03/25 06:04:42;;;;;;;19.10;8.35;;;8.20;99.90;;;;;;4990717;28;20050;-75
2023/03/25 06:07:13;;;;;;;26.63;8.07;;;8.20;99.90;;;;;;4987619;28;20038;-76
2023/03/25 06:09:45;;;;;;;25.50;8.55;;;8.20;99.90;;;;;;4989055;28;20049;-75
2023/03/25 06:12:19;;;;;;;14.75;7.03;;;8.20;99.90;;;;;;4974067;28;20096;-76
2023/03/25 06:14:46;;;;;;;23.05;7.53;;;8.20;99.90;;;;;;4982008;28;20520;-74
2023/03/25 06:17:17;;;;;;;16.77;7.65;;;8.30;99.90;;;;;;4972430;28;20495;-75
2023/03/25 06:19:44;;;;;;;19.88;7.75;;;8.20;99.90;;;;;;4969663;28;20625;-75
2023/03/25 06:22:11;;;;;;;20.63;8.10;;;8.20;99.90;;;;;;4989384;28;20689;-75
2023/03/25 06:24:41;;;;;;;19.70;7.88;;;8.20;99.90;;;;;;4971866;28;20057;-75
2023/03/25 06:27:13;;;;;;;20.42;8.00;;;8.20;99.90;;;;;;4990133;28;20531;-76
2023/03/25 06:29:40;;;;;;;19.63;7.43;;;8.20;99.90;;;;;;4971537;28;20552;-75
2023/03/25 06:32:07;;;;;;;22.85;6.32;;;8.20;99.90;;;;;;4973801;28;20052;-75
2023/03/25 06:34:33;;;;;;;19.67;7.15;;;8.20;99.90;;;;;;4989840;28;20141;-75
2023/03/25 06:37:00;;;;;;;22.15;7.15;;;8.20;99.90;;;;;;4990080;28;20054;-75
2023/03/25 06:39:30;;;;;;;21.80;7.10;;;8.20;99.90;;;;;;4989768;28;20054;-75
2023/03/25 06:42:00;;;;;;;18.48;7.13;;;8.20;99.90;;;;;;4972382;28;20081;-75
2023/03/25 06:44:26;;;;;;;24.95;7.28;;;8.20;99.90;;;;;;4971551;28;20158;-75
2023/03/25 06:46:52;;;;;;;16.98;6.65;;;8.20;99.90;;;;;;4983727;28;20416;-75
2023/03/25 06:49:18;;;;;;;25.23;7.55;;;8.20;99.90;;;;;;4987658;28;20132;-75
2023/03/25 06:51:44;;;;;;;21.25;6.40;;;8.10;99.90;;;;;;4989666;28;20077;-75
2023/03/25 06:54:10;;;;;;;20.83;7.30;;;8.10;99.90;;;;;;4972463;28;20427;-75
2023/03/25 06:56:36;;;;;;;17.85;5.90;;;8.10;99.90;;;;;;4972201;28;20050;-76
2023/03/25 06:59:03;;;;;;;19.65;7.45;;;8.20;99.90;;;;;;4989208;28;20057;-76
2023/03/25 07:01:29;;;;;;;23.63;7.38;;;8.20;99.90;;;;;;4988596;28;20061;-75
2023/03/25 07:03:55;;;;;;;16.98;6.05;;;8.20;99.90;;;;;;4970511;28;20038;-75
2023/03/25 07:06:21;;;;;;;23.95;7.20;;;8.20;99.90;;;;;;4971657;28;20073;-75
2023/03/25 07:08:47;;;;;;;16.10;6.68;;;8.30;99.90;;;;;;4971540;28;20034;-75
2023/03/25 07:11:15;;;;;;;17.38;6.45;;;8.30;99.90;;;;;;4988955;28;20161;-75
2023/03/25 07:13:40;;;;;;;17.92;6.30;;;8.40;99.90;;;;;;4989627;28;20046;-75
2023/03/25 07:16:07;;;;;;;21.02;6.47;;;8.40;99.90;;;;;;4971482;28;20042;-75
2023/03/25 07:18:32;;;;;;;20.70;5.88;;;8.40;99.90;;;;;;4971201;28;20054;-75
2023/03/25 07:20:58;;;;;;;17.15;5.95;;;8.50;99.90;;;;;;4971228;28;20045;-75
2023/03/25 07:23:24;;;;;;;24.95;6.43;;;8.40;99.90;;;;;;4984517;28;20059;-75
2023/03/25 07:25:50;;;;;;;18.02;6.88;;;8.40;99.90;;;;;;4968017;28;20057;-75
2023/03/25 07:28:15;;;;;;;19.90;6.53;;;8.50;99.90;;;;;;4967756;28;20043;-75
2023/03/25 07:30:41;;;;;;;23.88;6.40;;;8.50;99.90;;;;;;4969681;28;20046;-74
2023/03/25 07:33:08;;;;;;;18.48;6.38;;;8.40;99.90;;;;;;4967677;28;20097;-75
2023/03/25 07:35:34;;;;;;;19.33;6.90;;;8.50;99.90;;;;;;4966455;28;20059;-75
2023/03/25 07:38:00;;;;;;;17.38;6.32;;;8.60;99.90;;;;;;4968882;28;20100;-75
2023/03/25 07:40:25;;;;;;;21.20;6.85;;;8.60;99.90;;;;;;4968171;28;20377;-75
2023/03/25 07:42:51;;;;;;;21.98;6.68;;;8.70;99.90;;;;;;4968970;28;20065;-75
2023/03/25 07:45:16;;;;;;;23.75;7.90;;;8.70;99.90;;;;;;4968023;28;20092;-75
2023/03/25 07:47:48;;;;;;;25.42;7.68;;;8.80;99.90;;;;;;4983263;28;20127;-75
2023/03/25 07:50:18;;;;;;;24.92;7.18;;;8.80;99.90;;;;;;4966680;28;20089;-74
2023/03/25 07:52:44;;;;;;;24.10;7.85;;;8.90;99.90;;;;;;4964347;28;20153;-74
2023/03/25 07:55:10;;;;;;;17.80;5.93;;;8.90;99.90;;;;;;4966107;28;20056;-74
2023/03/25 07:57:36;;;;;;;23.75;6.20;;;8.80;99.90;;;;;;4966964;28;20156;-74
2023/03/25 08:00:04;;;;;;;20.98;6.40;;;8.70;99.90;;;;;;4983474;28;20053;-74
2023/03/25 08:02:30;;;;;;;;;;;8.70;99.90;;;;;;4968251;28;20054;-74
2023/03/25 08:04:56;;;;;;;24.95;6.20;;;8.70;99.90;;;;;;4966952;28;19922;-74
2023/03/25 08:07:22;;;;;;;15.32;5.30;;;8.60;99.90;;;;;;4983316;28;20149;-75
2023/03/25 08:09:48;;;;;;;18.20;6.25;;;8.60;99.90;;;;;;4966591;28;20043;-75
2023/03/25 08:12:14;;;;;;;19.70;6.05;;;8.60;99.90;;;;;;4966270;28;20058;-74
2023/03/25 08:14:39;;;;;;;40.33;7.00;;;8.60;99.90;;;;;;4968388;28;20039;-74
2023/03/25 08:17:05;;;;;;;19.55;5.85;;;8.70;99.90;;;;;;4981439;28;20063;-75
2023/03/25 08:19:31;;;;;;;19.80;6.20;;;8.70;99.90;;;;;;4969056;28;20750;-75
2023/03/25 08:21:58;;;;;;;26.20;6.20;;;8.80;99.90;;;;;;4983225;28;20049;-75
2023/03/25 08:24:25;;;;;;;30.42;7.13;;;8.70;99.90;;;;;;4977384;28;20058;-75
2023/03/25 08:26:53;;;;;;;17.25;5.85;;;8.80;99.90;;;;;;4968898;28;20046;-75
2023/03/25 08:29:19;;;;;;;30.23;6.37;;;8.70;99.90;;;;;;4967328;28;20061;-75
2023/03/25 08:31:45;;;;;;;13.75;4.20;;;8.80;99.90;;;;;;4970812;28;20046;-75
2023/03/25 08:34:12;;;;;;;14.18;4.70;;;8.70;99.90;;;;;;4968843;28;20054;-74
2023/03/25 08:36:38;;;;;;;26.48;6.53;;;8.60;99.90;;;;;;4969909;28;20133;-75
2023/03/25 08:39:10;;;;;;;17.13;4.40;;;8.70;99.90;;;;;;4984559;28;20486;-75
2023/03/25 08:41:37;;;;;;;15.50;5.15;;;8.70;99.90;;;;;;4973923;28;20078;-75
2023/03/25 08:44:04;;;;;;;22.30;4.95;;;8.60;99.90;;;;;;4990102;28;20928;-75
2023/03/25 08:46:30;;;;;;;13.65;5.25;;;8.60;99.90;;;;;;4991277;28;20046;-75
2023/03/25 08:48:55;;;;;;;22.13;5.97;;;8.60;99.90;;;;;;4990637;28;20035;-75
2023/03/25 08:51:21;;;;;;;25.05;6.40;;;8.60;99.90;;;;;;4989057;28;20649;-75
2023/03/25 08:53:47;;;;;;;34.45;7.60;;;8.80;99.90;;;;;;4968931;28;20101;-76
2023/03/25 08:56:13;;;;;;;19.17;6.88;;;8.90;99.90;;;;;;4973494;28;20452;-74
2023/03/25 08:58:38;;;;;;;25.85;7.43;;;9.00;99.90;;;;;;4989867;28;20054;-74
2023/03/25 09:01:05;;;;;;;24.75;6.45;;;9.00;99.90;;;;;;4987959;28;20046;-75
2023/03/25 09:03:31;;;;;;;27.05;6.50;;;9.00;99.90;;;;;;4992047;28;20138;-75
2023/03/25 09:05:57;;;;;;;19.50;6.30;;;9.00;99.90;;;;;;4974106;28;20487;-75
2023/03/25 09:08:23;;;;;;;20.13;7.28;;;9.00;99.90;;;;;;4992147;28;20050;-75
2023/03/25 09:10:49;;;;;;;27.13;7.50;;;9.10;99.90;;;;;;4972459;28;20050;-73
2023/03/25 09:13:15;;;;;;;30.95;6.47;;;9.10;99.90;;;;;;4991752;28;20082;-74
2023/03/25 09:15:41;;;;;;;24.35;7.47;;;9.10;99.90;;;;;;4974265;28;20416;-74
2023/03/25 09:18:07;;;;;;;23.00;8.05;;;9.20;99.90;;;;;;4972610;28;20056;-74
2023/03/25 09:20:33;;;;;;;25.80;7.13;;;9.20;99.90;;;;;;4992491;28;20061;-75
2023/03/25 09:22:59;;;;;;;27.40;7.25;;;9.30;99.90;;;;;;4991110;28;20047;-75
2023/03/25 09:25:24;;;;;;;27.65;7.55;;;9.20;99.90;;;;;;4972499;28;20419;-74
2023/03/25 09:27:50;;;;;;;26.70;8.57;;;9.30;99.90;;;;;;4971118;28;20051;-75
2023/03/25 09:30:16;;;;;;;28.50;7.72;;;9.30;99.90;;;;;;4969414;28;20057;-75
2023/03/25 09:32:43;;;;;;;19.58;6.72;;;9.40;99.90;;;;;;4989910;28;20113;-75
2023/03/25 09:35:09;;;;;;;26.98;7.00;;;9.50;99.90;;;;;;4986302;28;20089;-75
2023/03/25 09:37:34;;;;;;;26.42;7.82;;;9.50;99.90;;;;;;4991629;28;20082;-75
2023/03/25 09:40:00;;;;;;;25.60;6.75;;;9.70;99.90;;;;;;4973613;28;20538;-74
2023/03/25 09:42:54;;;;;;;23.58;7.43;;;9.80;99.90;;;;;;4990779;28;20541;-75
2023/03/25 09:45:40;;;;;;;19.45;5.85;;;9.90;99.90;;;;;;4973046;28;20050;-75
2023/03/25 09:48:12;;;;;;;23.90;7.10;;;10.10;99.90;;;;;;4971333;28;20092;-74
2023/03/25 09:50:40;;;;;;;18.40;6.57;;;10.20;99.90;;;;;;4970543;28;20061;-74
2023/03/25 09:53:09;;;;;;;21.20;7.35;;;10.20;99.90;;;;;;4990277;28;20117;-74
2023/03/25 09:55:39;;;;;;;17.00;5.85;;;10.20;99.90;;;;;;4973226;28;20054;-74
2023/03/25 09:58:34;;;;;;;22.20;6.57;;;10.20;99.90;;;;;;4968423;28;20054;-74
2023/03/25 10:01:22;;;;;;;18.02;5.13;;;10.10;99.90;;;;;;4990466;28;20039;-75
2023/03/25 10:04:17;;;;;;;18.65;5.65;;;10.00;99.90;;;;;;4964408;28;20516;-74
2023/03/25 10:07:25;;;;;;;13.30;4.43;;;9.80;99.90;;;;;;4946027;28;20112;-75
2023/03/25 10:09:51;;;;;;;;;;;9.70;99.90;;;;;;4989916;28;20514;-76
2023/03/25 10:12:49;;;;;;;17.42;5.18;;;9.60;99.90;;;;;;4990300;28;19934;-75
2023/03/25 10:16:01;;;;;;;19.33;5.15;;;9.60;99.90;;;;;;4951832;28;20158;-75
2023/03/25 10:19:04;;;;;;;21.73;6.43;;;9.70;99.90;;;;;;4946940;28;20602;-75
2023/03/25 10:21:38;;;;;;;22.13;6.93;;;9.80;99.90;;;;;;4946884;29;20584;-75
2023/03/25 10:24:30;;;;;;;26.95;7.45;;;9.70;99.90;;;;;;4962711;28;20042;-75
2023/03/25 10:27:09;;;;;;;22.60;6.00;;;9.80;99.90;;;;;;4988123;28;20874;-76
2023/03/25 10:30:02;;;;;;;12.10;4.80;;;9.80;99.90;;;;;;4989269;28;20512;-75
2023/03/25 10:32:37;;;;;;;22.10;5.75;;;9.90;99.90;;;;;;4984038;28;20062;-76
2023/03/25 10:35:11;;;;;;;20.70;6.07;;;9.90;99.90;;;;;;4971942;28;20884;-75
2023/03/25 10:37:40;;;;;;;21.73;5.60;;;10.00;99.90;;;;;;4989169;28;20443;-76
2023/03/25 10:40:34;;;;;;;22.40;6.53;;;10.10;99.90;;;;;;4972096;28;20117;-75
2023/03/25 10:43:25;;;;;;;20.58;6.15;;;10.20;99.90;;;;;;4972256;28;20042;-76
2023/03/25 10:45:55;;;;;;;27.55;5.85;;;10.20;99.90;;;;;;4988061;28;20057;-76
2023/03/25 10:48:27;;;;;;;32.38;5.90;;;10.00;99.90;;;;;;4972371;28;20056;-75
2023/03/25 10:51:04;;;;;;;26.20;5.93;;;10.00;99.90;;;;;;4971806;28;20046;-75
2023/03/25 10:53:30;;;;;;;38.95;6.68;;;10.00;99.90;;;;;;4990100;28;20051;-76
2023/03/25 10:56:06;;;;;;;29.08;8.15;;;10.00;99.90;;;;;;4989498;28;20112;-75
2023/03/25 10:58:34;;;;;;;22.90;6.53;;;10.00;99.90;;;;;;4989031;28;20050;-75
2023/03/25 11:01:09;;;;;;;19.13;7.25;;;10.00;99.90;;;;;;4983816;28;20459;-75
2023/03/25 11:03:36;;;;;;;24.27;7.10;;;10.10;99.90;;;;;;4989823;28;20046;-75
2023/03/25 11:06:03;;;;;;;16.05;6.20;;;10.20;99.90;;;;;;4972526;28;20582;-75
2023/03/25 11:08:28;;;;;;;18.63;5.68;;;10.40;99.90;;;;;;4983860;28;20197;-76
2023/03/25 11:10:58;;;;;;;26.95;5.22;;;10.50;99.90;;;;;;4988971;28;20547;-75
2023/03/25 11:13:29;;;;;;;21.48;5.75;;;10.60;99.90;;;;;;4989318;28;20047;-75
2023/03/25 11:16:01;;;;;;;36.72;6.35;;;10.90;99.90;;;;;;4970324;28;20420;-75
2023/03/25 11:18:40;;;;;;;22.63;6.13;;;11.00;99.90;;;;;;4987438;28;20197;-75
2023/03/25 11:21:12;;;;;;;18.33;5.72;;;11.10;99.90;;;;;;4992118;28;20377;-74
2023/03/25 11:23:50;;;;;;;15.48;4.45;;;11.10;99.90;;;;;;4979278;28;20050;-74
2023/03/25 11:26:22;;;;;;;22.63;4.93;;;11.20;99.90;;;;;;4966852;28;20125;-74
2023/03/25 11:29:00;;;;;;;18.05;5.45;;;11.10;99.90;;;;;;4984698;28;20085;-75
2023/03/25 11:31:29;;;;;;;20.93;4.90;;;11.00;99.90;;;;;;4988840;28;20432;-74
2023/03/25 11:34:13;;;;;;;17.95;5.55;;;11.10;99.90;;;;;;4983372;28;20057;-74
2023/03/25 11:36:51;;;;;;;24.38;6.00;;;11.00;99.90;;;;;;4976269;28;20054;-74
2023/03/25 11:39:33;;;;;;;19.35;6.35;;;11.00;99.90;;;;;;4952652;28;20056;-75
2023/03/25 11:42:06;;;;;;;18.40;5.20;;;11.00;99.90;;;;;;4966696;28;20586;-75
2023/03/25 11:44:32;;;;;;;17.02;5.80;;;11.00;99.90;;;;;;4980228;28;20038;-74
2023/03/25 11:47:06;;;;;;;14.52;4.88;;;11.10;99.90;;;;;;4987071;28;20045;-74
2023/03/25 11:49:40;;;;;;;17.90;6.53;;;11.10;99.90;;;;;;4984627;28;20056;-75
2023/03/25 11:52:19;;;;;;;13.45;5.25;;;11.20;99.90;;;;;;4984977;28;20053;-74
2023/03/25 11:54:45;;;;;;;18.35;4.90;;;11.30;99.90;;;;;;4965744;28;20865;-75
2023/03/25 11:57:25;;;;;;;23.05;5.72;;;11.60;99.90;;;;;;4986299;28;20088;-74
2023/03/25 12:00:08;;;;;;;25.92;5.50;;;11.90;99.90;;;;;;4989085;28;20053;-74
2023/03/25 12:02:39;;;;;;;14.82;4.75;;;12.10;99.90;;;;;;4967401;28;20058;-75
2023/03/25 12:05:11;;;;;;;18.52;5.95;;;12.30;99.90;;;;;;4979568;28;20054;-74
2023/03/25 12:07:58;;;;;;;16.40;4.07;;;12.50;99.90;;;;;;4971920;28;20054;-75
2023/03/25 12:10:55;;;;;;;18.60;5.47;;;12.60;99.90;;;;;;4987949;28;20116;-75
2023/03/25 12:13:42;;;;;;;18.40;5.80;;;12.50;99.90;;;;;;4982375;28;20063;-75
2023/03/25 12:16:25;;;;;;;12.90;3.78;;;12.40;99.90;;;;;;4985807;28;20285;-75
2023/03/25 12:19:31;;;;;;;18.63;5.30;;;12.40;99.90;;;;;;4988760;28;20396;-75
2023/03/25 12:22:16;;;;;;;12.65;4.25;;;12.50;99.90;;;;;;4928290;29;20063;-75
2023/03/25 12:24:57;;;;;;;13.90;4.68;;;12.50;99.90;;;;;;4970465;28;20411;-75
2023/03/25 12:27:30;;;;;;;16.60;4.80;;;12.50;99.90;;;;;;4988166;28;20081;-75
2023/03/25 12:30:09;;;;;;;12.85;5.38;;;12.50;99.90;;;;;;4988460;28;20042;-76
2023/03/25 12:32:50;;;;;;;14.25;4.55;;;12.60;99.90;;;;;;4986969;28;20065;-75
2023/03/25 12:35:46;;;;;;;15.60;5.07;;;12.70;99.90;;;;;;4970289;28;20124;-76
2023/03/25 12:38:25;;;;;;;12.35;5.05;;;12.70;99.90;;;;;;4966942;28;20169;-75
2023/03/25 12:41:10;;;;;;;19.88;5.35;;;12.80;99.90;;;;;;4965208;28;20038;-75
2023/03/25 12:43:57;;;;;;;16.58;4.55;;;13.00;99.90;;;;;;4971218;28;20158;-75
2023/03/25 12:46:38;;;;;;;15.05;4.55;;;13.20;99.90;;;;;;4970900;28;20609;-75
2023/03/25 12:49:22;;;;;;;21.15;5.55;;;13.30;99.90;;;;;;4983168;28;20050;-75
2023/03/25 12:52:15;;;;;;;17.00;4.43;;;13.40;99.90;;;;;;4988455;28;20054;-75
2023/03/25 12:55:00;;;;;;;13.95;3.65;;;13.50;99.90;;;;;;4982258;28;20038;-75
2023/03/25 12:58:05;;;;;;;17.65;5.55;;;13.50;99.90;;;;;;4971100;28;20057;-75
2023/03/25 13:00:37;;;;;;;13.77;4.20;;;13.50;99.90;;;;;;4961604;28;20090;-75
2023/03/25 13:03:32;;;;;;;14.15;3.42;;;13.40;99.90;;;;;;4966909;28;20043;-75
2023/03/25 13:06:16;;;;;;;13.75;5.05;;;13.40;99.90;;;;;;4988954;28;20046;-75
2023/03/25 13:08:53;;;;;;;18.00;4.43;;;13.20;99.90;;;;;;4972169;28;20078;-75
2023/03/25 13:11:31;;;;;;;12.70;4.32;;;13.20;99.90;;;;;;4970703;28;20061;-75